createdAt,value
2022-12-03T00:01:18.691Z,60.00
2022-12-03T00:04:21.570Z,58.17
2022-12-03T00:07:24.547Z,63.00
2022-12-03T00:10:28.837Z,61.03
2022-12-03T00:13:31.796Z,55.73
2022-12-03T00:16:34.706Z,53.23
2022-12-03T00:19:37.602Z,58.13
2022-12-03T00:22:40.513Z,58.07
2022-12-03T00:25:44.919Z,54.13
2022-12-03T00:28:48.076Z,57.57
2022-12-03T00:31:50.958Z,57.47
2022-12-03T00:34:54.161Z,59.63
2022-12-03T00:37:57.313Z,52.07
2022-12-03T00:41:01.599Z,53.37
2022-12-03T00:44:04.557Z,50.30
2022-12-03T00:47:07.444Z,49.47
2022-12-03T00:50:12.239Z,57.50
2022-12-03T00:53:15.146Z,53.80
2022-12-03T00:56:19.390Z,55.37
2022-12-03T00:59:22.370Z,59.13
2022-12-03T01:02:25.263Z,51.97
2022-12-03T01:05:28.244Z,59.03
2022-12-03T01:08:31.156Z,56.07
2022-12-03T01:11:41.754Z,56.07
2022-12-03T01:14:44.660Z,54.40
2022-12-03T01:17:47.620Z,60.47
2022-12-03T01:20:50.478Z,61.57
2022-12-03T01:23:53.387Z,56.80
2022-12-03T01:26:57.768Z,56.37
2022-12-03T01:30:00.782Z,60.80
2022-12-03T01:33:02.739Z,67.53
2022-12-03T01:36:05.868Z,62.67
2022-12-03T01:39:08.830Z,64.50
2022-12-03T01:42:18.192Z,59.07
2022-12-03T01:45:23.981Z,58.73
2022-12-03T01:48:26.947Z,57.40
2022-12-03T01:51:30.889Z,57.83
2022-12-03T01:54:40.068Z,62.40
2022-12-03T01:57:48.150Z,60.80
2022-12-03T02:00:51.133Z,62.57
2022-12-03T02:03:54.159Z,58.83
2022-12-03T02:06:57.073Z,61.27
2022-12-03T02:10:02.791Z,61.67
2022-12-03T02:13:09.318Z,62.97
2022-12-03T02:16:12.419Z,60.07
2022-12-03T02:19:23.507Z,60.37
2022-12-03T02:22:38.814Z,58.47
2022-12-03T02:25:43.232Z,57.90
2022-12-03T02:28:46.203Z,61.57
2022-12-03T02:31:49.169Z,65.70
2022-12-03T02:34:52.631Z,63.80
2022-12-03T02:37:59.404Z,54.30
2022-12-03T02:41:06.302Z,62.47
2022-12-03T02:44:08.971Z,54.77
2022-12-03T02:47:12.353Z,60.83
2022-12-03T02:50:18.515Z,57.53
2022-12-03T02:53:25.067Z,55.97
2022-12-03T02:56:32.674Z,56.90
2022-12-03T02:59:35.804Z,56.83
2022-12-03T03:02:39.975Z,56.67
2022-12-03T03:05:43.123Z,57.53
2022-12-03T03:08:46.259Z,59.83
2022-12-03T03:11:50.546Z,58.30
2022-12-03T03:14:53.949Z,57.60
2022-12-03T03:17:57.483Z,57.90
2022-12-03T03:21:00.658Z,56.43
2022-12-03T03:24:03.651Z,62.53
2022-12-03T03:27:08.080Z,55.47
2022-12-03T03:30:12.231Z,57.13
2022-12-03T03:33:17.082Z,58.10
2022-12-03T03:36:21.162Z,58.80
2022-12-03T03:39:24.174Z,60.50
2022-12-03T03:42:28.958Z,60.07
2022-12-03T03:45:32.100Z,59.87
2022-12-03T03:48:36.574Z,57.87
2022-12-03T03:51:40.665Z,59.43
2022-12-03T03:54:43.687Z,54.70
2022-12-03T03:57:48.276Z,57.67
2022-12-03T04:00:51.220Z,58.43
2022-12-03T04:03:54.844Z,63.03
2022-12-03T04:06:57.762Z,60.20
2022-12-03T04:10:20.707Z,56.60
2022-12-03T04:13:23.978Z,61.63
2022-12-03T04:16:26.933Z,59.47
2022-12-03T04:19:29.900Z,60.93
2022-12-03T04:22:40.819Z,59.40
2022-12-03T04:26:01.280Z,64.00
2022-12-03T04:29:05.681Z,55.70
2022-12-03T04:32:26.265Z,59.50
2022-12-03T04:35:44.342Z,56.97
2022-12-03T04:38:47.314Z,55.50
2022-12-03T04:41:50.284Z,58.43
2022-12-03T04:44:54.875Z,56.30
2022-12-03T04:47:58.022Z,59.67
2022-12-03T04:51:00.974Z,59.17
2022-12-03T04:54:04.075Z,57.83
2022-12-03T04:57:07.918Z,59.37
2022-12-03T05:00:13.989Z,57.60
2022-12-03T05:03:17.181Z,55.67
2022-12-03T05:06:20.156Z,55.43
2022-12-03T05:09:23.168Z,57.60
2022-12-03T05:12:26.082Z,56.53
2022-12-03T05:15:30.397Z,55.07
2022-12-03T05:18:33.414Z,60.63
2022-12-03T05:21:36.554Z,60.53
2022-12-03T05:24:39.466Z,57.47
2022-12-03T05:27:42.360Z,62.10
2022-12-03T05:30:46.883Z,68.43
2022-12-03T05:33:49.885Z,64.67
2022-12-03T05:36:52.786Z,64.87
2022-12-03T05:39:55.736Z,59.50
2022-12-03T05:43:00.980Z,59.80
2022-12-03T05:46:05.350Z,57.30
2022-12-03T05:49:08.350Z,57.80
2022-12-03T05:52:11.327Z,59.57
2022-12-03T05:55:14.250Z,60.63
2022-12-03T05:58:17.312Z,66.20
2022-12-03T06:01:21.628Z,66.67
2022-12-03T06:04:24.703Z,68.43
2022-12-03T06:07:27.798Z,56.97
2022-12-03T06:10:30.783Z,54.77
2022-12-03T06:13:33.853Z,56.67
2022-12-03T06:16:38.194Z,58.23
2022-12-03T06:19:41.216Z,65.03
2022-12-03T06:22:44.513Z,63.57
2022-12-03T06:25:47.415Z,61.03
2022-12-03T06:28:50.345Z,61.73
2022-12-03T06:31:54.613Z,61.87
2022-12-03T06:34:57.563Z,68.63
2022-12-03T06:38:00.430Z,68.83
2022-12-03T06:41:04.794Z,62.43
2022-12-03T06:44:07.782Z,63.77
2022-12-03T06:47:12.166Z,63.80
2022-12-03T06:50:15.223Z,71.27
2022-12-03T06:53:18.251Z,64.10
2022-12-03T06:56:22.437Z,64.77
2022-12-03T06:59:25.715Z,63.90
2022-12-03T07:02:30.135Z,69.87
2022-12-03T07:05:33.073Z,71.47
2022-12-03T07:08:36.243Z,65.03
2022-12-03T07:11:41.899Z,63.40
2022-12-03T07:14:44.796Z,64.33
2022-12-03T07:17:49.207Z,61.93
2022-12-03T07:20:52.089Z,66.33
2022-12-03T07:23:54.945Z,65.87
2022-12-03T07:26:57.933Z,65.83
2022-12-03T07:30:00.865Z,66.60
2022-12-03T07:33:05.227Z,67.43
2022-12-03T07:36:08.935Z,60.67
2022-12-03T07:39:11.885Z,69.87
2022-12-03T07:42:14.870Z,68.20
2022-12-03T07:45:17.882Z,66.13
2022-12-03T07:48:22.133Z,65.90
2022-12-03T07:51:30.496Z,73.53
2022-12-03T07:54:35.318Z,71.93
2022-12-03T07:57:38.337Z,61.57
2022-12-03T08:00:41.266Z,66.40
2022-12-03T08:03:45.556Z,63.50
2022-12-03T08:06:48.641Z,64.17
2022-12-03T08:09:51.918Z,67.63
2022-12-03T08:12:55.427Z,68.60
2022-12-03T08:16:02.454Z,68.73
2022-12-03T08:19:12.039Z,64.27
2022-12-03T08:22:16.401Z,66.23
2022-12-03T08:25:23.348Z,77.00
2022-12-03T08:28:27.685Z,68.57
2022-12-03T08:31:33.631Z,68.63
2022-12-03T08:34:41.613Z,67.97
2022-12-03T08:37:44.527Z,72.13
2022-12-03T08:40:49.239Z,66.80
2022-12-03T08:43:52.135Z,71.43
2022-12-03T08:47:00.980Z,70.87
2022-12-03T08:50:25.390Z,74.80
2022-12-03T08:53:37.270Z,71.23
2022-12-03T08:56:40.412Z,68.57
2022-12-03T08:59:45.592Z,67.03
2022-12-03T09:02:52.302Z,69.77
2022-12-03T09:05:56.623Z,72.33
2022-12-03T09:09:05.156Z,71.03
2022-12-03T09:12:09.659Z,70.17
2022-12-03T09:15:12.869Z,72.77
2022-12-03T09:18:15.925Z,67.43
2022-12-03T09:21:20.355Z,78.90
2022-12-03T09:24:23.346Z,63.83
2022-12-03T09:27:26.305Z,71.67
2022-12-03T09:30:29.319Z,69.00
2022-12-03T09:33:32.431Z,72.47
2022-12-03T09:36:36.803Z,64.10
2022-12-03T09:39:39.751Z,71.87
2022-12-03T09:42:43.129Z,78.60
2022-12-03T09:45:46.826Z,68.43
2022-12-03T09:48:50.101Z,71.07
2022-12-03T09:51:57.350Z,66.87
2022-12-03T09:55:01.312Z,71.03
2022-12-03T09:58:10.937Z,63.90
2022-12-03T10:01:16.154Z,70.37
2022-12-03T10:04:19.255Z,71.10
2022-12-03T10:07:23.998Z,65.10
2022-12-03T10:10:26.950Z,70.33
2022-12-03T10:13:31.674Z,69.40
2022-12-03T10:16:42.388Z,66.67
2022-12-03T10:19:45.706Z,67.57
2022-12-03T10:22:50.486Z,67.37
2022-12-03T10:25:55.990Z,64.87
2022-12-03T10:28:58.920Z,69.70
2022-12-03T10:32:04.104Z,72.07
2022-12-03T10:35:12.514Z,68.50
2022-12-03T10:38:23.211Z,72.07
2022-12-03T10:41:29.397Z,66.20
2022-12-03T10:44:32.246Z,69.57
2022-12-03T10:47:35.429Z,73.37
2022-12-03T10:50:38.766Z,71.87
2022-12-03T10:53:43.339Z,63.73
2022-12-03T10:56:47.336Z,77.40
2022-12-03T10:59:50.596Z,69.17
2022-12-03T11:02:57.017Z,66.43
2022-12-03T11:06:02.801Z,66.43
2022-12-03T11:09:18.450Z,73.77
2022-12-03T11:12:23.143Z,72.30
2022-12-03T11:15:43.890Z,70.70
2022-12-03T11:19:02.175Z,70.03
2022-12-03T11:22:28.309Z,67.50
2022-12-03T11:25:51.306Z,70.90
2022-12-03T11:28:55.380Z,69.37
2022-12-03T11:31:58.310Z,68.83
2022-12-03T11:35:01.214Z,67.40
2022-12-03T11:38:40.897Z,65.53
2022-12-03T11:42:25.211Z,68.90
2022-12-03T11:45:35.698Z,63.57
2022-12-03T11:48:45.203Z,64.80
2022-12-03T11:51:48.431Z,65.80
2022-12-03T11:54:54.389Z,68.00
2022-12-03T11:57:59.584Z,69.27
2022-12-03T12:01:06.717Z,68.57
2022-12-03T12:04:29.072Z,69.57
2022-12-03T12:07:36.173Z,68.40
2022-12-03T12:10:45.688Z,64.80
2022-12-03T12:13:54.459Z,65.80
2022-12-03T12:17:03.165Z,68.33
2022-12-03T12:20:25.475Z,63.00
2022-12-03T12:23:30.209Z,65.37
2022-12-03T12:26:33.096Z,67.67
2022-12-03T12:29:36.960Z,64.33
2022-12-03T12:32:46.279Z,74.53
2022-12-03T12:35:49.201Z,62.87
2022-12-03T12:38:52.194Z,62.80
2022-12-03T12:41:56.393Z,69.07
2022-12-03T12:45:14.066Z,64.03
2022-12-03T12:48:24.153Z,65.13
2022-12-03T12:51:27.133Z,62.47
2022-12-03T12:54:30.050Z,70.40
2022-12-03T12:57:34.945Z,66.47
2022-12-03T13:00:38.348Z,63.03
2022-12-03T13:03:42.646Z,72.43
2022-12-03T13:06:47.149Z,66.17
2022-12-03T13:09:55.586Z,64.07
2022-12-03T13:12:58.691Z,64.50
2022-12-03T13:16:07.590Z,60.97
2022-12-03T13:19:22.655Z,69.53
2022-12-03T13:22:25.995Z,65.23
2022-12-03T13:29:02.728Z,63.40
2022-12-03T13:32:14.639Z,67.90
2022-12-03T13:35:27.653Z,67.47
2022-12-03T13:38:31.161Z,64.70
2022-12-03T13:41:52.452Z,70.60
2022-12-03T13:44:55.756Z,68.77
2022-12-03T13:48:00.533Z,70.73
2022-12-03T13:51:20.688Z,59.17
2022-12-03T13:54:27.300Z,69.90
2022-12-03T13:57:30.225Z,75.33
2022-12-03T14:00:33.283Z,73.10
2022-12-03T14:03:36.489Z,63.70
2022-12-03T14:06:40.791Z,69.57
2022-12-03T14:09:43.689Z,67.50
2022-12-03T14:12:46.596Z,66.43
2022-12-03T14:15:49.513Z,67.60
2022-12-03T14:18:52.668Z,66.93
2022-12-03T14:21:57.015Z,64.93
2022-12-03T14:24:59.952Z,61.77
2022-12-03T14:28:02.929Z,62.50
2022-12-03T14:31:05.983Z,68.03
2022-12-03T14:34:08.895Z,58.67
2022-12-03T14:37:13.221Z,63.00
2022-12-03T14:40:21.182Z,62.80
2022-12-03T14:43:24.721Z,67.47
2022-12-03T14:46:27.700Z,58.50
2022-12-03T14:49:30.683Z,64.97
2022-12-03T14:52:34.905Z,55.00
2022-12-03T14:55:37.822Z,56.10
2022-12-03T14:58:40.760Z,60.33
2022-12-03T15:01:43.788Z,56.07
2022-12-03T15:04:46.740Z,54.87
2022-12-03T15:07:51.077Z,55.17
2022-12-03T15:10:54.101Z,58.83
2022-12-03T15:13:57.126Z,61.07
2022-12-03T15:17:00.104Z,51.97
2022-12-03T15:20:04.107Z,56.53
2022-12-03T15:23:13.942Z,57.30
2022-12-03T15:26:17.334Z,60.43
2022-12-03T15:29:20.307Z,59.13
2022-12-03T15:32:23.293Z,60.40
2022-12-03T15:35:26.347Z,63.53
2022-12-03T15:38:30.665Z,58.67
2022-12-03T15:41:33.892Z,61.53
2022-12-03T15:44:36.796Z,68.87
2022-12-03T15:47:39.704Z,65.73
2022-12-03T15:50:42.592Z,55.87
2022-12-03T15:53:46.954Z,61.17
2022-12-03T15:56:54.110Z,61.97
2022-12-03T16:00:00.103Z,65.03
2022-12-03T16:03:03.100Z,55.27
2022-12-03T16:06:06.560Z,65.97
2022-12-03T16:09:10.858Z,65.03
2022-12-03T16:12:13.753Z,58.43
2022-12-03T16:15:19.845Z,67.63
2022-12-03T16:18:26.370Z,67.03
2022-12-03T16:21:29.466Z,68.73
2022-12-03T16:24:33.787Z,61.67
2022-12-03T16:27:37.985Z,66.10
2022-12-03T16:30:40.969Z,65.93
2022-12-03T16:33:43.960Z,68.83
2022-12-03T16:36:46.896Z,69.03
2022-12-03T16:39:51.279Z,65.80
2022-12-03T16:42:54.289Z,58.83
2022-12-03T16:46:20.093Z,68.07
2022-12-03T16:49:23.018Z,55.63
2022-12-03T16:52:25.911Z,66.17
2022-12-03T16:55:30.229Z,68.00
2022-12-03T16:58:33.128Z,62.33
2022-12-03T17:01:36.115Z,64.47
2022-12-03T17:04:39.157Z,59.13
2022-12-03T17:07:42.131Z,62.30
2022-12-03T17:10:46.497Z,67.33
2022-12-03T17:13:49.476Z,62.80
2022-12-03T17:16:52.392Z,69.03
2022-12-03T17:19:55.561Z,61.73
2022-12-03T17:22:59.050Z,65.83
2022-12-03T17:26:03.323Z,65.37
2022-12-03T17:29:06.258Z,69.47
2022-12-03T17:32:09.192Z,72.87
2022-12-03T17:35:13.174Z,64.60
2022-12-03T17:38:16.363Z,61.33
2022-12-03T17:41:20.739Z,65.93
2022-12-03T17:44:24.296Z,65.50
2022-12-03T17:47:27.214Z,66.73
2022-12-03T17:50:30.155Z,69.17
2022-12-03T17:53:33.076Z,64.40
2022-12-03T17:56:39.245Z,70.10
2022-12-03T17:59:42.150Z,64.87
2022-12-03T18:02:45.123Z,65.87
2022-12-03T18:05:48.043Z,61.47
2022-12-03T18:08:50.987Z,64.73
2022-12-03T18:11:55.268Z,64.03
2022-12-03T18:14:58.118Z,61.77
2022-12-03T18:18:01.032Z,67.77
2022-12-03T18:21:04.199Z,67.77
2022-12-03T18:24:07.869Z,63.07
2022-12-03T18:27:12.557Z,67.97
2022-12-03T18:30:15.824Z,65.80
2022-12-03T18:33:18.748Z,62.93
2022-12-03T18:36:23.664Z,65.10
2022-12-03T18:39:32.966Z,72.23
2022-12-03T18:42:38.533Z,65.17
2022-12-03T18:45:41.602Z,69.90
2022-12-03T18:48:46.058Z,66.60
2022-12-03T18:51:50.411Z,72.60
2022-12-03T18:54:56.133Z,69.00
2022-12-03T18:58:00.371Z,69.00
2022-12-03T19:01:03.310Z,69.93
2022-12-03T19:04:06.426Z,66.13
2022-12-03T19:07:10.619Z,71.57
2022-12-03T19:10:13.508Z,69.23
2022-12-03T19:13:17.810Z,71.17
2022-12-03T19:16:20.944Z,67.30
2022-12-03T19:19:27.155Z,71.93
2022-12-03T19:22:30.162Z,69.17
2022-12-03T19:25:33.160Z,78.87
2022-12-03T19:28:38.001Z,69.27
2022-12-03T19:31:42.173Z,65.60
2022-12-03T19:34:45.056Z,72.37
2022-12-03T19:37:48.099Z,80.20
2022-12-03T19:40:59.958Z,74.77
2022-12-03T19:44:09.389Z,71.93
2022-12-03T19:47:13.871Z,80.57
2022-12-03T19:50:22.728Z,68.20
2022-12-03T19:53:26.556Z,72.90
2022-12-03T19:56:30.179Z,70.80
2022-12-03T19:59:34.509Z,71.40
2022-12-03T20:02:37.429Z,70.83
2022-12-03T20:05:41.762Z,74.93
2022-12-03T20:08:44.963Z,76.70
2022-12-03T20:11:50.691Z,78.13
2022-12-03T20:14:54.959Z,76.90
2022-12-03T20:17:57.945Z,76.60
2022-12-03T20:21:01.285Z,69.43
2022-12-03T20:24:05.253Z,78.53
2022-12-03T20:27:08.268Z,73.67
2022-12-03T20:30:13.448Z,72.23
2022-12-03T20:33:16.343Z,83.23
2022-12-03T20:36:22.592Z,70.40
2022-12-03T20:39:25.622Z,70.73
2022-12-03T20:42:28.600Z,73.83
2022-12-03T20:45:32.944Z,77.50
2022-12-03T20:48:35.940Z,78.47
2022-12-03T20:51:38.851Z,77.00
2022-12-03T20:54:41.750Z,77.37
2022-12-03T20:57:44.685Z,71.73
2022-12-03T21:00:49.068Z,72.90
2022-12-03T21:03:53.678Z,79.70
2022-12-03T21:06:56.686Z,86.93
2022-12-03T21:09:59.620Z,79.13
2022-12-03T21:13:02.564Z,76.07
2022-12-03T21:16:10.004Z,82.50
2022-12-03T21:19:13.039Z,78.80
2022-12-03T21:22:15.986Z,74.47
2022-12-03T21:25:19.046Z,79.07
2022-12-03T21:28:21.955Z,82.30
2022-12-03T21:31:27.680Z,78.17
2022-12-03T21:34:36.141Z,81.10
2022-12-03T21:37:39.511Z,79.97
2022-12-03T21:40:42.478Z,86.83
2022-12-03T21:43:45.851Z,82.87
2022-12-03T21:47:12.529Z,82.13
2022-12-03T21:50:13.080Z,81.23
2022-12-03T21:53:15.998Z,84.37
2022-12-03T21:56:20.432Z,81.83
2022-12-03T21:59:23.353Z,77.73
2022-12-03T22:02:27.984Z,80.87
2022-12-03T22:05:31.001Z,76.37
2022-12-03T22:08:34.004Z,78.83
2022-12-03T22:11:36.948Z,89.73
2022-12-03T22:14:39.859Z,81.90
2022-12-03T22:17:44.168Z,82.43
2022-12-03T22:20:47.063Z,81.60
2022-12-03T22:23:49.995Z,79.60
2022-12-03T22:26:54.645Z,78.73
2022-12-03T22:29:57.665Z,88.20
2022-12-03T22:33:03.128Z,83.40
2022-12-03T22:36:08.284Z,85.83
2022-12-03T22:39:11.162Z,84.37
2022-12-03T22:42:14.048Z,79.97
2022-12-03T22:45:17.080Z,85.50
2022-12-03T22:48:21.704Z,93.30
2022-12-03T22:51:26.728Z,84.53
2022-12-03T22:54:29.705Z,81.70
2022-12-03T22:57:32.690Z,88.20
2022-12-03T23:00:37.723Z,88.43
2022-12-03T23:03:42.099Z,82.70
2022-12-03T23:06:45.036Z,84.47
2022-12-03T23:09:47.958Z,87.67
2022-12-03T23:12:50.875Z,90.40
2022-12-03T23:15:54.021Z,98.30
2022-12-03T23:18:58.891Z,93.00
2022-12-03T23:22:01.808Z,84.33
2022-12-03T23:25:05.951Z,88.97
2022-12-03T23:28:09.720Z,83.67
2022-12-03T23:31:18.487Z,89.93
2022-12-03T23:34:23.013Z,83.47
2022-12-03T23:37:25.976Z,81.80
2022-12-03T23:40:28.867Z,87.17
2022-12-03T23:43:31.958Z,83.93
2022-12-03T23:46:35.192Z,86.00
2022-12-03T23:49:39.589Z,83.00
2022-12-03T23:52:42.579Z,83.40
2022-12-03T23:55:45.530Z,87.20
2022-12-03T23:58:48.585Z,88.40
